createdAt,value
2023-02-03T00:02:21.302Z,0.30
2023-02-03T00:07:23.237Z,0.30
2023-02-03T00:12:25.120Z,0.40
2023-02-03T00:17:26.829Z,0.50
2023-02-03T00:22:28.573Z,0.50
2023-02-03T00:27:30.305Z,0.60
2023-02-03T00:32:32.143Z,0.60
2023-02-03T00:37:33.936Z,0.70
2023-02-03T00:42:36.132Z,0.70
2023-02-03T00:47:37.958Z,0.70
2023-02-03T00:52:39.806Z,0.70
2023-02-03T00:57:41.560Z,0.60
2023-02-03T01:02:43.313Z,0.40
2023-02-03T01:07:45.272Z,0.50
2023-02-03T01:12:46.962Z,0.50
2023-02-03T01:17:48.701Z,0.50
2023-02-03T01:22:50.480Z,0.50
2023-02-03T01:27:52.384Z,0.40
2023-02-03T01:32:54.161Z,0.50
2023-02-03T01:37:55.918Z,0.50
2023-02-03T01:42:57.607Z,0.40
2023-02-03T01:48:00.155Z,0.40
2023-02-03T01:53:05.598Z,0.40
2023-02-03T01:58:13.395Z,0.40
2023-02-03T02:03:15.826Z,0.30
2023-02-03T02:08:20.011Z,0.30
2023-02-03T02:13:22.578Z,0.30
2023-02-03T02:18:46.312Z,0.20
2023-02-03T02:24:00.159Z,0.20
2023-02-03T02:29:27.220Z,0.30
2023-02-03T02:34:48.839Z,0.30
2023-02-03T02:40:05.901Z,0.20
2023-02-03T02:45:51.879Z,0.20
2023-02-03T02:50:57.779Z,0.20
2023-02-03T02:56:03.226Z,0.20
2023-02-03T03:01:08.452Z,0.30
2023-02-03T03:06:29.343Z,0.30
2023-02-03T03:11:37.702Z,0.20
2023-02-03T03:16:45.375Z,0.20
2023-02-03T03:21:52.307Z,0.20
2023-02-03T03:27:20.375Z,0.10
2023-02-03T03:32:22.638Z,0.10
2023-02-03T03:37:38.506Z,0.10
2023-02-03T03:42:55.707Z,0.00
2023-02-03T03:48:20.788Z,-0.10
2023-02-03T03:53:25.327Z,-0.10
2023-02-03T03:58:32.078Z,-0.20
2023-02-03T04:03:40.792Z,-0.30
2023-02-03T04:08:42.526Z,-0.30
2023-02-03T04:13:44.339Z,-0.20
2023-02-03T04:18:46.051Z,-0.10
2023-02-03T04:23:47.843Z,-0.10
2023-02-03T04:28:49.718Z,0.00
2023-02-03T04:33:51.685Z,0.00
2023-02-03T04:38:53.415Z,0.00
2023-02-03T04:43:55.128Z,0.00
2023-02-03T04:48:57.360Z,0.00
2023-02-03T04:53:59.105Z,0.00
2023-02-03T04:59:00.816Z,0.00
2023-02-03T05:04:02.591Z,0.00
2023-02-03T05:09:04.589Z,-0.10
2023-02-03T05:14:06.922Z,0.00
2023-02-03T05:19:09.011Z,-0.10
2023-02-03T05:24:10.866Z,-0.20
2023-02-03T05:29:12.623Z,-0.40
2023-02-03T05:34:14.383Z,-0.60
2023-02-03T05:39:16.067Z,-0.80
2023-02-03T05:44:18.458Z,-0.70
2023-02-03T05:49:20.333Z,-0.50
2023-02-03T05:54:22.766Z,-0.40
2023-02-03T05:59:24.715Z,-0.50
2023-02-03T06:04:26.491Z,-0.50
2023-02-03T06:09:28.393Z,-0.50
2023-02-03T06:14:30.308Z,-0.60
2023-02-03T06:19:32.010Z,-0.70
2023-02-03T06:24:33.741Z,-1.00
2023-02-03T06:29:35.550Z,-1.00
2023-02-03T06:34:37.321Z,-0.90
2023-02-03T06:39:39.061Z,-0.70
2023-02-03T06:44:40.902Z,-0.70
2023-02-03T06:49:42.743Z,-0.70
2023-02-03T06:54:44.707Z,-0.60
2023-02-03T06:59:46.474Z,-0.50
2023-02-03T07:04:48.302Z,-0.40
2023-02-03T07:09:50.082Z,-0.30
2023-02-03T07:14:52.213Z,-0.30
2023-02-03T07:19:53.934Z,-0.20
2023-02-03T07:24:55.679Z,-0.20
2023-02-03T07:29:57.413Z,-0.20
2023-02-03T07:35:01.239Z,-0.10
2023-02-03T07:40:03.173Z,-0.10
2023-02-03T07:45:05.308Z,-0.10
2023-02-03T07:50:07.683Z,0.10
2023-02-03T07:55:09.571Z,0.20
2023-02-03T08:00:14.001Z,0.30
2023-02-03T08:05:17.218Z,0.30
2023-02-03T08:10:19.477Z,0.40
2023-02-03T08:15:21.934Z,0.50
2023-02-03T08:20:23.814Z,0.60
2023-02-03T08:25:25.509Z,0.60
2023-02-03T08:30:27.586Z,0.70
2023-02-03T08:35:29.569Z,0.70
2023-02-03T08:40:31.476Z,0.70
2023-02-03T08:45:33.497Z,0.70
2023-02-03T08:50:35.256Z,1.20
2023-02-03T08:55:40.592Z,1.40
2023-02-03T09:00:43.095Z,1.90
2023-02-03T09:05:44.867Z,2.20
2023-02-03T09:10:46.576Z,1.90
2023-02-03T09:15:48.416Z,1.80
2023-02-03T09:20:50.118Z,1.70
2023-02-03T09:25:51.903Z,1.60
2023-02-03T09:30:53.635Z,1.70
2023-02-03T09:35:56.815Z,1.80
2023-02-03T09:41:46.338Z,1.50
2023-02-03T09:46:58.540Z,1.50
2023-02-03T09:52:10.814Z,1.40
2023-02-03T09:57:21.185Z,1.70
2023-02-03T10:02:47.422Z,2.30
2023-02-03T10:08:10.867Z,2.50
2023-02-03T10:13:54.690Z,2.20
2023-02-03T10:18:58.712Z,2.30
2023-02-03T10:24:01.466Z,2.00
2023-02-03T10:29:14.442Z,2.80
2023-02-03T10:34:17.702Z,2.90
2023-02-03T10:39:32.218Z,2.30
2023-02-03T10:44:40.130Z,1.80
2023-02-03T10:49:43.512Z,1.40
2023-02-03T10:54:45.237Z,1.60
2023-02-03T10:59:48.328Z,1.90
2023-02-03T11:05:20.625Z,2.20
2023-02-03T11:10:28.967Z,2.20
2023-02-03T11:15:30.999Z,2.00
2023-02-03T11:20:36.699Z,1.60
2023-02-03T11:25:38.657Z,1.40
2023-02-03T11:30:40.517Z,1.40
2023-02-03T11:35:56.061Z,1.90
2023-02-03T11:41:01.339Z,2.00
2023-02-03T11:46:09.899Z,2.30
2023-02-03T11:51:23.959Z,2.80
2023-02-03T11:56:49.502Z,2.60
2023-02-03T12:02:19.389Z,2.80
2023-02-03T12:07:34.392Z,2.70
2023-02-03T12:12:46.324Z,2.90
2023-02-03T12:17:58.330Z,3.10
2023-02-03T12:23:18.705Z,2.70
2023-02-03T12:28:38.979Z,2.30
2023-02-03T12:33:44.964Z,2.10
2023-02-03T12:38:52.105Z,1.80
2023-02-03T12:43:58.549Z,1.60
2023-02-03T12:49:06.821Z,1.50
2023-02-03T12:54:46.014Z,1.40
2023-02-03T13:00:09.506Z,1.50
2023-02-03T13:05:23.706Z,2.00
2023-02-03T13:10:39.061Z,2.50
2023-02-03T13:15:45.565Z,2.40
2023-02-03T13:20:47.305Z,2.60
2023-02-03T13:25:58.154Z,2.50
2023-02-03T13:31:06.069Z,2.70
2023-02-03T13:36:09.422Z,2.70
2023-02-03T13:41:22.485Z,2.10
2023-02-03T13:46:35.619Z,1.60
2023-02-03T13:51:46.034Z,1.20
2023-02-03T13:57:21.984Z,1.00
2023-02-03T14:02:23.629Z,0.70
2023-02-03T14:07:38.254Z,0.50
2023-02-03T14:12:52.349Z,0.40
2023-02-03T14:18:23.025Z,0.30
2023-02-03T14:23:39.137Z,0.20
2023-02-03T14:28:45.350Z,0.20
2023-02-03T14:34:14.177Z,0.10
2023-02-03T14:39:20.002Z,0.00
2023-02-03T14:44:40.283Z,-0.30
2023-02-03T14:49:41.954Z,-0.60
2023-02-03T14:54:58.441Z,-0.90
2023-02-03T15:00:27.311Z,-1.00
2023-02-03T15:05:29.747Z,-1.10
2023-02-03T15:10:44.897Z,-1.20
2023-02-03T15:15:50.154Z,-1.30
2023-02-03T15:20:56.109Z,-1.30
2023-02-03T15:26:14.667Z,-1.60
2023-02-03T15:31:27.936Z,-1.80
2023-02-03T15:36:45.713Z,-1.90
2023-02-03T15:41:51.516Z,-2.10
2023-02-03T15:46:54.854Z,-2.20
2023-02-03T15:52:08.233Z,-2.30
2023-02-03T15:57:19.993Z,-2.40
2023-02-03T16:02:28.353Z,-2.40
2023-02-03T16:07:30.422Z,-2.40
2023-02-03T16:12:33.559Z,-2.50
2023-02-03T16:17:39.359Z,-2.60
2023-02-03T16:23:06.885Z,-2.70
2023-02-03T16:28:35.286Z,-2.80
2023-02-03T16:33:55.847Z,-2.90
2023-02-03T16:39:19.863Z,-3.00
2023-02-03T16:44:40.339Z,-2.90
2023-02-03T16:50:00.846Z,-2.80
2023-02-03T16:55:02.584Z,-2.70
2023-02-03T17:00:05.819Z,-2.90
2023-02-03T17:05:07.740Z,-3.00
2023-02-03T17:10:10.278Z,-3.10
2023-02-03T17:15:12.055Z,-3.10
2023-02-03T17:20:13.873Z,-3.10
2023-02-03T17:25:15.642Z,-2.80
2023-02-03T17:30:17.731Z,-2.80
2023-02-03T17:35:19.649Z,-3.00
2023-02-03T17:56:28.633Z,-3.40
2023-02-03T18:01:31.718Z,-3.50
2023-02-03T18:06:36.736Z,-3.30
2023-02-03T18:11:38.833Z,-3.40
2023-02-03T18:16:41.369Z,-3.40
2023-02-03T18:21:43.971Z,-3.30
2023-02-03T18:26:49.608Z,-3.10
2023-02-03T18:31:51.376Z,-2.90
2023-02-03T18:36:53.262Z,-2.80
2023-02-03T18:41:55.037Z,-2.70
2023-02-03T18:47:05.211Z,-2.50
2023-02-03T18:52:07.447Z,-2.30
2023-02-03T18:57:15.265Z,-2.20
2023-02-03T19:02:17.029Z,-2.20
2023-02-03T19:07:18.765Z,-2.10
2023-02-03T19:12:20.497Z,-2.00
2023-02-03T19:17:23.487Z,-2.00
2023-02-03T19:22:25.213Z,-1.80
2023-02-03T19:27:27.070Z,-1.70
2023-02-03T19:32:28.867Z,-1.60
2023-02-03T19:37:30.761Z,-1.50
2023-02-03T19:42:32.488Z,-1.50
2023-02-03T19:47:34.580Z,-1.50
2023-02-03T19:52:36.546Z,-1.50
2023-02-03T19:57:38.261Z,-1.40
2023-02-03T20:02:40.104Z,-1.30
2023-02-03T20:07:41.805Z,-1.30
2023-02-03T20:12:43.548Z,-1.20
2023-02-03T20:17:45.257Z,-1.10
2023-02-03T20:22:47.033Z,-1.00
2023-02-03T20:27:48.825Z,-1.00
2023-02-03T20:32:50.718Z,-1.00
2023-02-03T20:37:53.057Z,-1.00
2023-02-03T20:42:54.788Z,-1.00
2023-02-03T20:47:56.509Z,-0.90
2023-02-03T20:52:58.244Z,-0.90
2023-02-03T20:58:02.402Z,-0.80
2023-02-03T21:03:23.029Z,-0.90
2023-02-03T21:08:26.301Z,-0.80
2023-02-03T21:13:33.521Z,-0.80
2023-02-03T21:18:39.627Z,-0.80
2023-02-03T21:23:46.832Z,-0.80
2023-02-03T21:28:54.480Z,-0.80
2023-02-03T21:33:58.401Z,-0.80
2023-02-03T21:39:01.052Z,-0.90
2023-02-03T21:44:20.139Z,-0.90
2023-02-03T21:49:22.327Z,-0.80
2023-02-03T21:54:30.168Z,-0.90
2023-02-03T21:59:39.193Z,-0.90
2023-02-03T22:04:40.946Z,-0.80
2023-02-03T22:09:42.671Z,-0.70
2023-02-03T22:14:44.409Z,-0.70
2023-02-03T22:19:46.149Z,-0.70
2023-02-03T22:24:48.063Z,-0.80
2023-02-03T22:29:49.781Z,-0.80
2023-02-03T22:34:51.648Z,-0.70
2023-02-03T22:39:54.765Z,-0.70
2023-02-03T22:44:56.584Z,-0.70
2023-02-03T22:49:58.308Z,-0.80
2023-02-03T22:55:00.113Z,-0.80
2023-02-03T23:00:01.970Z,-0.80
2023-02-03T23:05:04.272Z,-0.80
2023-02-03T23:10:08.464Z,-0.80
2023-02-03T23:15:10.746Z,-0.90
2023-02-03T23:20:14.366Z,-0.90
2023-02-03T23:25:16.230Z,-0.90
2023-02-03T23:30:18.045Z,-0.90
2023-02-03T23:35:38.488Z,-0.90
2023-02-03T23:40:40.434Z,-0.90
2023-02-03T23:45:42.317Z,-0.90
2023-02-03T23:50:44.097Z,-1.00
2023-02-03T23:55:45.939Z,-1.00
